Terminal Aerodrome Forecast
Issued by NWS

Home | Current Version | Previous Version | Text Only | Print | Product List | Glossary On
Versions: 1 2 3 4 5 6 7 8 9 10 11 12 13 14 15 16 17
000
FTUS42 TJSJ 300548
TAFISX
TAF
TISX 300548Z 3006/0106 12005KT P6SM -RA VCSH FEW023 SCT035 BKN080
      TEMPO 3008/3012 VRB12G20KT 5SM SHRA SCT025 BKN040
     FM301330 13012KT P6SM -RA VCTS SCT025CB SCT035 BKN050
     FM302300 10007KT P6SM FEW025 SCT040=

USA.gov is the U.S. government's official web portal to all federal, state and local government web resources and services.